Terminal Aerodrome Forecast
Issued by NWS Charleston, WV

Current Version | Previous Version | Graphics & Text | Print | Product List | Glossary On
Versions: 1 2 3 4 5 6 7 8 9 10 11 12 13 14 15 16 17 18 19 20 21 22 23 24 25 26 27 28
651
FTUS41 KRLX 150946 AAB
TAFBKW
TAF AMD
KBKW 150946Z 1510/1606 23011G18KT P6SM OVC008
      TEMPO 1510/1514 OVC015
     FM151400 23011G18KT P6SM OVC015
     FM152000 24012G22KT P6SM OVC025=

USA.gov is the U.S. government's official web portal to all federal, state and local government web resources and services.